Time;durP1;ratioP1;P1;durP2;ratioP2;P2;SDS_P1;SDS_P2;PMS_P1;PMS_P2;Temp;Humidity;BMP_temperature;BMP_pressure;BME280_temperature;BME280_humidity;BME280_pressure;Samples;Min_cycle;Max_cycle;Signal;HPM_P1;HPM_P2
2022/07/01 00:01:54;;;;;;;11.00;10.00;;;;;;;22.45;77.84;101201.31;4951203;28;20244;-72
2022/07/01 00:04:20;;;;;;;11.50;10.43;;;;;;;22.54;77.18;101182.81;4951120;28;20271;-73
2022/07/01 00:06:45;;;;;;;11.17;10.17;;;;;;;22.59;76.86;101194.03;4951277;28;20284;-73
2022/07/01 00:09:10;;;;;;;12.33;11.13;;;;;;;22.60;77.22;101202.72;4950806;28;20213;-73
2022/07/01 00:11:36;;;;;;;12.17;10.67;;;;;;;22.63;76.53;101192.19;4950851;28;20189;-73
2022/07/01 00:14:01;;;;;;;10.93;10.03;;;;;;;22.64;76.64;101181.72;4949338;29;20278;-73
2022/07/01 00:16:27;;;;;;;9.07;7.53;;;;;;;22.69;73.11;101158.09;4950934;28;20244;-74
2022/07/01 00:18:52;;;;;;;6.90;6.30;;;;;;;22.77;71.86;101132.63;4950775;28;20240;-74
2022/07/01 00:21:18;;;;;;;6.73;6.03;;;;;;;22.80;71.64;101124.72;4950381;28;20212;-73
2022/07/01 00:23:43;;;;;;;8.40;6.90;;;;;;;22.81;71.84;101132.53;4951158;28;20592;-73
2022/07/01 00:26:09;;;;;;;7.80;7.00;;;;;;;22.82;72.34;101143.81;4950694;28;20185;-73
2022/07/01 00:28:35;;;;;;;6.80;6.10;;;;;;;22.85;72.32;101149.84;4950763;28;20212;-73
2022/07/01 00:31:00;;;;;;;7.57;4.97;;;;;;;22.78;71.51;101178.78;4946194;28;20215;-73
2022/07/01 00:33:26;;;;;;;3.37;3.13;;;;;;;22.63;70.26;101205.25;4950940;28;20272;-73
2022/07/01 00:35:53;;;;;;;4.33;3.03;;;;;;;22.52;71.23;101226.41;4950341;28;20190;-73
2022/07/01 00:38:18;;;;;;;3.23;2.83;;;;;;;22.45;72.51;101214.38;4950921;28;20213;-73
2022/07/01 00:40:43;;;;;;;3.73;3.37;;;;;;;22.42;72.56;101204.81;4951569;28;20626;-73
2022/07/01 00:43:09;;;;;;;11.07;4.47;;;;;;;22.29;75.54;101219.03;4954298;28;20613;-72
2022/07/01 00:45:34;;;;;;;10.40;4.60;;;;;;;22.10;77.94;101248.19;4954677;28;20209;-73
2022/07/01 00:48:00;;;;;;;15.27;7.00;;;;;;;21.64;82.83;101257.78;4954324;28;20211;-73
2022/07/01 00:50:26;;;;;;;17.03;8.73;;;;;;;21.17;85.50;101222.19;4954373;28;20200;-73
2022/07/01 00:52:51;;;;;;;12.97;8.43;;;;;;;21.11;85.66;101114.63;4984817;23;20505;-76
2022/07/01 00:55:17;;;;;;;15.83;8.23;;;;;;;21.22;85.37;101055.34;4963333;28;20764;-76
2022/07/01 00:57:43;;;;;;;7.87;6.33;;;;;;;21.31;81.55;101061.22;4968778;28;20203;-77
2022/07/01 01:00:16;;;;;;;6.73;6.13;;;;;;;21.39;82.30;101074.97;4987706;28;20181;-77
2022/07/01 01:02:42;;;;;;;8.70;6.47;;;;;;;21.34;82.46;101084.63;4974881;28;20706;-77
2022/07/01 01:05:08;;;;;;;10.87;7.10;;;;;;;21.30;83.09;101097.75;4952997;28;20295;-77
2022/07/01 01:07:34;;;;;;;10.87;7.20;;;;;;;21.00;86.20;101107.00;4950552;28;20196;-77
2022/07/01 01:10:01;;;;;;;10.00;7.60;;;;;;;20.95;86.35;101121.00;4972195;28;20200;-78
2022/07/01 01:12:28;;;;;;;8.40;6.87;;;;;;;20.65;87.60;101108.50;4977007;28;20189;-78
2022/07/01 01:14:54;;;;;;;8.17;6.10;;;;;;;20.48;86.73;101114.00;4973518;28;20219;-77
2022/07/01 01:17:23;;;;;;;8.83;5.90;;;;;;;20.37;86.69;101102.91;4972682;28;20279;-80
2022/07/01 01:19:49;;;;;;;6.97;5.53;;;;;;;20.21;86.66;101098.81;4983169;23;20240;-72
2022/07/01 01:22:16;;;;;;;10.73;6.93;;;;;;;20.21;86.64;101100.56;4953016;28;20252;-72
2022/07/01 01:24:43;;;;;;;7.30;5.90;;;;;;;20.13;86.62;101100.69;4954106;29;20225;-72
2022/07/01 01:27:09;;;;;;;6.70;6.00;;;;;;;20.12;86.95;101091.16;4953534;29;20848;-71
2022/07/01 01:29:35;;;;;;;10.37;5.87;;;;;;;20.11;86.78;101094.66;4954020;28;20189;-72
2022/07/01 01:32:01;;;;;;;5.97;5.33;;;;;;;19.96;87.96;101087.06;4953496;28;20244;-72
2022/07/01 01:34:27;;;;;;;7.20;5.90;;;;;;;19.93;88.26;101088.81;4952660;29;20189;-72
2022/07/01 01:36:53;;;;;;;8.80;5.27;;;;;;;19.98;88.11;101080.09;4953927;29;20204;-72
2022/07/01 01:39:19;;;;;;;7.60;5.80;;;;;;;19.90;88.88;101086.28;4935946;29;20193;-72
2022/07/01 01:41:44;;;;;;;9.63;5.87;;;;;;;19.99;88.70;101083.56;4953375;28;20217;-72
2022/07/01 01:44:10;;;;;;;10.43;6.17;;;;;;;19.97;89.19;101080.97;4951855;29;20212;-72
2022/07/01 01:46:36;;;;;;;8.90;6.87;;;;;;;19.94;88.85;101077.56;4952344;29;20702;-72
2022/07/01 01:49:03;;;;;;;7.80;6.10;;;;;;;19.89;89.68;101074.16;4951919;29;20311;-71
2022/07/01 01:51:28;;;;;;;7.57;6.50;;;;;;;19.82;90.28;101081.19;4967532;28;20244;-72
2022/07/01 01:53:55;;;;;;;10.17;6.30;;;;;;;19.78;90.97;101083.84;4953438;28;20197;-72
2022/07/01 01:56:22;;;;;;;10.73;7.13;;;;;;;19.73;91.02;101090.84;4955789;28;20217;-72
2022/07/01 01:58:48;;;;;;;9.33;7.00;;;;;;;19.77;91.17;101093.38;4955838;28;20185;-72
2022/07/01 02:01:14;;;;;;;13.80;7.13;;;;;;;19.74;91.50;101097.75;4963915;28;20202;-72
2022/07/01 02:03:41;;;;;;;8.97;7.00;;;;;;;19.66;92.08;101097.03;4964291;28;20236;-72
2022/07/01 02:06:09;;;;;;;8.80;7.50;;;;;;;19.67;92.16;101109.16;4952881;28;20228;-72
2022/07/01 02:08:38;;;;;;;10.00;7.17;;;;;;;19.65;91.93;101109.16;4953135;28;20267;-72
2022/07/01 02:11:04;;;;;;;8.60;7.20;;;;;;;19.63;92.61;101118.69;4952890;28;20192;-72
2022/07/01 02:13:30;;;;;;;9.40;7.70;;;;;;;19.61;92.95;101104.88;4952646;28;20185;-72
2022/07/01 02:15:56;;;;;;;8.67;7.50;;;;;;;19.58;93.42;101119.66;4953075;28;20216;-72
2022/07/01 02:18:22;;;;;;;10.73;8.70;;;;;;;19.55;93.76;101125.75;4952548;28;20215;-73
2022/07/01 02:20:48;;;;;;;9.30;7.93;;;;;;;19.58;93.63;101125.69;4951577;28;20296;-72
2022/07/01 02:23:14;;;;;;;12.00;8.13;;;;;;;19.59;93.63;101132.63;4952298;28;20377;-72
2022/07/01 02:25:40;;;;;;;9.17;8.13;;;;;;;19.57;93.83;101130.94;4952471;28;20197;-73
2022/07/01 02:28:07;;;;;;;9.23;8.30;;;;;;;19.55;93.93;101135.28;4952749;28;20197;-72
2022/07/01 02:30:36;;;;;;;9.37;8.43;;;;;;;19.52;94.30;101135.31;4952259;28;20177;-72
2022/07/01 02:33:05;;;;;;;11.83;8.50;;;;;;;19.55;93.91;101133.53;4952453;28;20702;-72
2022/07/01 02:35:33;;;;;;;10.47;9.37;;;;;;;19.57;93.80;101126.56;4982995;28;20193;-72
2022/07/01 02:37:58;;;;;;;10.67;8.53;;;;;;;19.58;94.18;101127.44;4983375;28;20189;-72
2022/07/01 02:40:24;;;;;;;10.03;8.10;;;;;;;19.60;94.15;101133.47;4951901;29;20235;-72
2022/07/01 02:42:49;;;;;;;10.67;8.43;;;;;;;19.61;94.80;101133.47;4952597;29;20193;-72
2022/07/01 02:45:15;;;;;;;12.60;9.37;;;;;;;19.54;95.03;101142.22;4983320;28;20240;-72
2022/07/01 02:47:42;;;;;;;10.13;9.10;;;;;;;19.43;95.63;101141.47;4952339;29;20213;-71
2022/07/01 02:50:09;;;;;;;12.23;10.33;;;;;;;19.48;95.84;101144.88;4967180;28;20601;-72
2022/07/01 02:52:37;;;;;;;13.43;9.33;;;;;;;19.51;95.65;101134.47;4952015;28;20181;-72
2022/07/01 02:55:07;;;;;;;12.53;9.37;;;;;;;19.56;95.54;101137.84;4952608;28;20169;-73
2022/07/01 02:57:33;;;;;;;12.80;9.70;;;;;;;19.58;95.43;101132.66;4951752;28;20201;-72
2022/07/01 02:59:59;;;;;;;12.17;9.90;;;;;;;19.53;96.06;101137.03;4952179;28;20301;-72
2022/07/01 03:02:25;;;;;;;13.67;10.87;;;;;;;19.54;96.12;101149.16;4966649;28;20273;-72
2022/07/01 03:04:52;;;;;;;11.53;9.53;;;;;;;19.57;96.18;101169.91;4951454;28;20197;-72
2022/07/01 03:07:19;;;;;;;12.37;10.43;;;;;;;19.55;96.71;101169.94;4951901;28;20284;-72
2022/07/01 03:09:45;;;;;;;13.37;10.90;;;;;;;19.51;97.02;101199.41;4951559;28;20252;-72
2022/07/01 03:12:30;;;;;;;13.47;11.10;;;;;;;19.46;97.67;101213.31;4982845;28;20276;-72
2022/07/01 03:14:56;;;;;;;12.20;10.90;;;;;;;19.45;98.11;101216.81;4951590;29;20267;-72
2022/07/01 03:17:23;;;;;;;12.70;11.30;;;;;;;19.41;98.85;101225.50;4950135;28;20756;-72
2022/07/01 03:19:49;;;;;;;14.03;12.20;;;;;;;19.37;99.59;101222.09;4951190;29;20200;-72
2022/07/01 03:22:14;;;;;;;14.63;12.23;;;;;;;19.34;100.00;101219.50;4950224;29;20910;-72
2022/07/01 03:24:40;;;;;;;13.57;12.17;;;;;;;19.37;100.00;101224.69;4951565;28;20189;-71
2022/07/01 03:27:06;;;;;;;14.97;12.23;;;;;;;19.37;100.00;101227.28;4951207;28;20307;-72
2022/07/01 03:29:31;;;;;;;15.50;12.20;;;;;;;19.35;100.00;101235.97;4951081;28;20192;-72
2022/07/01 03:31:57;;;;;;;15.83;11.87;;;;;;;19.35;100.00;101238.56;4950941;29;20316;-72
2022/07/01 03:34:22;;;;;;;14.57;11.90;;;;;;;19.34;100.00;101234.25;4951675;29;20670;-72
2022/07/01 03:36:48;;;;;;;17.53;10.93;;;;;;;19.35;100.00;101234.22;4951023;29;20239;-71
2022/07/01 03:39:13;;;;;;;12.40;11.10;;;;;;;19.41;99.67;101225.50;4982529;28;20185;-72
2022/07/01 03:41:39;;;;;;;13.10;10.63;;;;;;;19.48;99.76;101232.38;4950797;29;20696;-72
2022/07/01 03:44:05;;;;;;;12.37;10.50;;;;;;;19.54;99.46;101225.38;4951491;28;20200;-72
2022/07/01 03:46:32;;;;;;;10.90;9.80;;;;;;;19.57;99.35;101224.47;4951550;28;20267;-72
2022/07/01 03:48:58;;;;;;;11.17;9.83;;;;;;;19.56;99.24;101228.81;4950914;29;20216;-72
2022/07/01 03:51:24;;;;;;;12.40;9.23;;;;;;;19.62;99.25;101223.53;4950381;29;20793;-72
2022/07/01 03:56:34;;;;;;;10.17;9.07;;;;;;;19.72;98.31;101206.94;4951498;29;20585;-72
2022/07/01 03:58:59;;;;;;;10.80;9.07;;;;;;;19.79;97.88;101212.94;4950970;28;20185;-72
2022/07/01 04:01:25;;;;;;;9.80;8.80;;;;;;;19.79;97.87;101207.72;4951229;29;20263;-72
2022/07/01 04:03:50;;;;;;;10.10;8.73;;;;;;;19.83;98.22;101197.28;4951588;28;20189;-73
2022/07/01 04:06:16;;;;;;;9.70;8.70;;;;;;;19.89;97.96;101189.41;4950890;28;20706;-72
2022/07/01 04:08:42;;;;;;;9.73;8.37;;;;;;;19.90;97.25;101178.13;4951305;28;20223;-72
2022/07/01 04:11:08;;;;;;;9.87;8.10;;;;;;;19.91;97.44;101185.06;4951037;28;20208;-72
2022/07/01 04:13:37;;;;;;;8.73;7.70;;;;;;;19.92;96.84;101189.38;4951593;28;20603;-72
2022/07/01 04:16:03;;;;;;;9.70;8.67;;;;;;;19.90;96.85;101196.31;4952637;28;20857;-73
2022/07/01 04:18:30;;;;;;;8.93;8.00;;;;;;;19.87;96.65;101206.78;4955480;28;20412;-73
2022/07/01 04:23:40;;;;;;;9.57;8.57;;;;;;;19.88;96.84;101224.09;4945155;29;20192;-73
2022/07/01 04:26:05;;;;;;;10.90;9.50;;;;;;;19.88;96.93;101224.09;4955307;29;20891;-72
2022/07/01 04:28:30;;;;;;;11.00;9.37;;;;;;;19.92;96.78;101230.97;4953452;29;20692;-72
2022/07/01 04:30:56;;;;;;;12.27;10.93;;;;;;;19.92;97.07;101224.91;4954148;29;20181;-72
2022/07/01 04:33:21;;;;;;;13.10;11.10;;;;;;;19.96;96.76;101222.25;4953013;29;20573;-72
2022/07/01 04:35:47;;;;;;;13.13;11.77;;;;;;;19.98;96.62;101225.69;4954409;29;20204;-72
2022/07/01 04:38:12;;;;;;;13.20;11.50;;;;;;;20.04;95.97;101233.41;4954380;28;20768;-72
2022/07/01 04:40:38;;;;;;;14.57;13.07;;;;;;;20.03;95.70;101239.50;4954425;29;20345;-72
2022/07/01 04:43:03;;;;;;;14.60;13.10;;;;;;;20.01;95.98;101241.28;4985830;28;20546;-72
2022/07/01 04:45:28;;;;;;;12.23;11.13;;;;;;;19.91;95.75;101254.38;4968258;28;20201;-72
2022/07/01 04:47:54;;;;;;;12.20;10.97;;;;;;;19.84;95.99;101260.53;4954603;29;20193;-72
2022/07/01 04:50:19;;;;;;;10.33;9.33;;;;;;;19.82;95.86;101270.09;4984556;28;20203;-72
2022/07/01 04:52:45;;;;;;;8.93;8.03;;;;;;;19.72;95.73;101271.09;4954535;28;20228;-72
2022/07/01 04:55:10;;;;;;;7.60;6.90;;;;;;;19.67;95.26;101278.06;4954081;29;20232;-72
2022/07/01 04:57:36;;;;;;;7.83;7.03;;;;;;;19.61;95.42;101284.19;4952479;29;20284;-72
2022/07/01 05:00:01;;;;;;;7.73;6.80;;;;;;;19.57;94.96;101281.66;4954403;29;20200;-72
2022/07/01 05:02:27;;;;;;;8.20;6.50;;;;;;;19.43;95.68;101291.31;4984351;28;20212;-72
2022/07/01 05:04:52;;;;;;;7.87;6.90;;;;;;;19.47;95.59;101290.38;4953052;29;20745;-72
2022/07/01 05:07:30;;;;;;;8.17;7.30;;;;;;;19.49;96.09;101294.69;4952662;28;20205;-72
2022/07/01 05:09:56;;;;;;;8.20;7.40;;;;;;;19.47;96.03;101309.44;4954083;29;20732;-72
2022/07/01 05:12:22;;;;;;;9.30;8.50;;;;;;;19.39;96.67;101313.00;4953539;28;20192;-72
2022/07/01 05:14:48;;;;;;;10.20;9.20;;;;;;;19.35;96.86;101325.13;4954160;28;20228;-72
2022/07/01 05:17:13;;;;;;;11.80;10.70;;;;;;;19.26;97.07;101333.00;4959810;28;20353;-72
2022/07/01 05:22:23;;;;;;;11.10;9.73;;;;;;;19.14;97.04;101353.84;4973795;28;20239;-71
2022/07/01 05:24:49;;;;;;;13.43;9.67;;;;;;;19.09;96.64;101354.75;4955623;28;20313;-72
2022/07/01 05:27:14;;;;;;;12.73;9.57;;;;;;;18.97;96.34;101355.69;4953233;28;20240;-72
2022/07/01 05:29:39;;;;;;;14.00;10.77;;;;;;;18.83;96.07;101357.50;4953574;28;20276;-72
2022/07/01 05:32:05;;;;;;;11.60;10.07;;;;;;;18.74;95.86;101349.78;4953642;28;20217;-72
2022/07/01 05:34:31;;;;;;;14.30;9.90;;;;;;;18.69;96.08;101359.31;4968058;28;20188;-72
2022/07/01 05:36:57;;;;;;;11.37;9.10;;;;;;;18.60;96.16;101369.75;4953636;28;20581;-72
2022/07/01 05:39:22;;;;;;;9.90;7.30;;;;;;;18.33;96.26;101384.56;4953790;28;20189;-72
2022/07/01 05:41:48;;;;;;;9.53;6.37;;;;;;;18.19;96.92;101396.69;4951616;29;20212;-72
2022/07/01 05:44:13;;;;;;;10.40;6.00;;;;;;;18.25;96.88;101399.25;4953617;28;20189;-72
2022/07/01 05:46:39;;;;;;;8.03;5.47;;;;;;;18.21;97.13;101410.50;4952819;28;20220;-72
2022/07/01 05:49:05;;;;;;;7.30;4.23;;;;;;;18.25;96.52;101423.47;4953458;28;20247;-72
2022/07/01 05:51:31;;;;;;;5.10;3.67;;;;;;;18.21;96.32;101426.94;4953028;28;20189;-71
2022/07/01 05:53:56;;;;;;;6.10;3.40;;;;;;;18.24;96.04;101433.84;4953438;28;20272;-72
2022/07/01 05:56:22;;;;;;;4.63;3.00;;;;;;;18.16;95.30;101445.94;4953378;28;20213;-73
2022/07/01 05:58:48;;;;;;;5.97;2.43;;;;;;;18.13;95.86;101452.00;4951635;29;20193;-72
2022/07/01 06:01:14;;;;;;;6.20;2.70;;;;;;;18.01;96.05;101462.38;4953056;28;20280;-72
2022/07/01 06:03:40;;;;;;;3.83;2.27;;;;;;;17.87;96.42;101469.28;4952417;28;20197;-72
2022/07/01 06:06:05;;;;;;;7.63;3.00;;;;;;;17.81;96.57;101477.06;4952988;29;20748;-72
2022/07/01 06:08:31;;;;;;;5.63;2.97;;;;;;;17.75;96.63;101474.50;4966828;28;20306;-72
2022/07/01 06:10:56;;;;;;;5.03;2.57;;;;;;;17.86;96.73;101475.34;4952888;29;20726;-72
2022/07/01 06:13:22;;;;;;;4.93;2.70;;;;;;;17.96;97.10;101458.06;4952966;28;20662;-72
2022/07/01 06:15:47;;;;;;;4.50;3.10;;;;;;;17.99;97.16;101456.34;4952368;29;20561;-72
2022/07/01 06:18:12;;;;;;;3.90;2.50;;;;;;;17.86;96.75;101470.16;4952868;28;20666;-72
2022/07/01 06:20:38;;;;;;;5.00;2.20;;;;;;;17.67;96.67;101476.22;4952137;28;20213;-72
2022/07/01 06:23:03;;;;;;;8.33;3.53;;;;;;;17.59;98.22;101461.53;4952874;28;20186;-72
2022/07/01 06:25:29;;;;;;;7.80;3.40;;;;;;;17.52;98.50;101462.38;4952425;28;20655;-72
2022/07/01 06:27:54;;;;;;;5.60;2.80;;;;;;;17.40;97.58;101445.09;4951211;28;20228;-72
2022/07/01 06:30:20;;;;;;;5.33;3.20;;;;;;;17.49;97.66;101426.09;4952311;28;20649;-72
2022/07/01 06:32:45;;;;;;;6.97;2.73;;;;;;;17.37;96.98;101400.19;4952428;29;20193;-72
2022/07/01 06:35:11;;;;;;;5.03;2.57;;;;;;;17.38;96.82;101376.88;4953138;28;20213;-72
2022/07/01 06:37:36;;;;;;;4.27;2.60;;;;;;;17.31;96.79;101328.53;4951842;28;20277;-72
2022/07/01 06:40:06;;;;;;;6.10;2.83;;;;;;;17.41;96.65;101332.88;4952633;29;20185;-72
2022/07/01 06:42:33;;;;;;;5.00;2.60;;;;;;;17.45;96.67;101342.38;4952052;28;20244;-72
2022/07/01 06:44:58;;;;;;;6.13;2.73;;;;;;;17.50;96.14;101415.75;4952683;28;20231;-71
2022/07/01 06:47:24;;;;;;;4.00;2.70;;;;;;;17.40;96.02;101449.44;4952216;29;20420;-71
2022/07/01 06:49:49;;;;;;;5.43;3.00;;;;;;;17.34;96.16;101485.63;4952277;29;20742;-72
2022/07/01 06:52:15;;;;;;;5.40;3.20;;;;;;;17.38;96.38;101485.63;4952250;28;20185;-72
2022/07/01 06:54:40;;;;;;;4.93;3.20;;;;;;;17.48;96.45;101471.00;4951545;29;20188;-72
2022/07/01 06:57:06;;;;;;;5.37;3.40;;;;;;;17.67;95.85;101441.66;4952232;28;20244;-72
2022/07/01 06:59:32;;;;;;;4.93;3.37;;;;;;;17.78;95.32;101452.91;4951798;28;20204;-72
2022/07/01 07:01:58;;;;;;;5.67;3.23;;;;;;;17.94;94.66;101446.84;4951317;28;20682;-72
2022/07/01 07:04:23;;;;;;;5.43;2.97;;;;;;;18.00;94.49;101445.09;4951766;28;20189;-72
2022/07/01 07:06:49;;;;;;;4.80;3.07;;;;;;;17.95;94.07;101453.72;4951814;28;20201;-72
2022/07/01 07:09:14;;;;;;;4.27;2.80;;;;;;;17.90;94.58;101456.34;4947640;29;20264;-72
2022/07/01 07:11:40;;;;;;;4.03;3.03;;;;;;;17.82;94.89;101452.03;4951321;28;20192;-72
2022/07/01 07:14:05;;;;;;;4.77;3.20;;;;;;;17.89;95.16;101444.25;4982963;28;20256;-69
2022/07/01 07:16:31;;;;;;;4.23;2.60;;;;;;;17.94;95.24;101452.88;4951268;28;20220;-73
2022/07/01 07:18:57;;;;;;;2.90;2.30;;;;;;;17.92;94.51;101459.78;4951850;29;20208;-72
2022/07/01 07:21:22;;;;;;;2.40;2.20;;;;;;;17.90;94.35;101463.25;4950568;28;20208;-72
2022/07/01 07:23:48;;;;;;;4.27;2.37;;;;;;;17.92;94.81;101466.72;4950341;29;20189;-72
2022/07/01 07:26:14;;;;;;;5.33;2.27;;;;;;;17.90;94.79;101471.00;4951739;28;20625;-72
2022/07/01 07:28:40;;;;;;;3.57;1.93;;;;;;;17.87;94.10;101471.88;4982143;28;20601;-73
2022/07/01 07:31:05;;;;;;;4.63;1.80;;;;;;;17.89;94.77;101483.13;4951641;28;20196;-72
2022/07/01 07:33:31;;;;;;;2.73;1.70;;;;;;;17.75;95.25;101489.16;4950811;28;20189;-71
2022/07/01 07:35:56;;;;;;;3.73;2.40;;;;;;;17.66;94.91;101481.38;4950054;29;20259;-72
2022/07/01 07:38:22;;;;;;;6.67;2.53;;;;;;;17.55;94.40;101489.13;4950496;29;20658;-71
2022/07/01 07:40:47;;;;;;;3.93;2.27;;;;;;;17.53;94.74;101484.81;4934382;28;20359;-72
2022/07/01 07:43:13;;;;;;;4.87;2.20;;;;;;;17.57;94.65;101486.56;4950801;28;20271;-71
2022/07/01 07:45:38;;;;;;;5.87;2.33;;;;;;;17.62;93.96;101482.22;4950526;28;20217;-72
2022/07/01 07:48:05;;;;;;;3.63;2.20;;;;;;;17.62;93.56;101477.06;4951020;28;20721;-72
2022/07/01 07:50:31;;;;;;;6.97;2.20;;;;;;;17.61;93.11;101483.97;4950067;28;20189;-71
2022/07/01 07:52:57;;;;;;;4.27;2.40;;;;;;;17.61;93.37;101489.16;4951038;28;20189;-71
2022/07/01 07:55:22;;;;;;;4.23;2.20;;;;;;;17.58;92.88;101483.09;4950535;28;20850;-71
2022/07/01 07:57:48;;;;;;;3.37;2.37;;;;;;;17.65;92.91;101490.91;4951018;29;20689;-71
2022/07/01 08:00:13;;;;;;;3.97;2.20;;;;;;;17.64;92.74;101486.56;4982161;28;20197;-71
2022/07/01 08:02:40;;;;;;;2.90;2.20;;;;;;;17.64;92.58;101483.13;4950509;28;20623;-71
2022/07/01 08:05:07;;;;;;;4.03;2.20;;;;;;;17.82;92.20;101489.16;4964182;28;20224;-72
2022/07/01 08:07:38;;;;;;;3.73;2.13;;;;;;;17.76;92.03;101488.28;4953597;28;20212;-71
2022/07/01 08:10:05;;;;;;;2.93;1.83;;;;;;;17.77;92.01;101500.41;4951149;28;20240;-72
2022/07/01 08:12:31;;;;;;;3.50;1.80;;;;;;;17.69;91.68;101512.47;4981630;28;20610;-72
2022/07/01 08:14:57;;;;;;;5.30;2.00;;;;;;;17.61;92.01;101515.06;4950786;28;20197;-71
2022/07/01 08:17:22;;;;;;;2.40;1.77;;;;;;;17.47;91.96;101528.84;4951121;28;20291;-71
2022/07/01 08:19:49;;;;;;;4.13;2.00;;;;;;;17.49;92.04;101525.41;4950488;29;20283;-71
2022/07/01 08:22:14;;;;;;;2.33;2.07;;;;;;;17.45;91.76;101518.47;4949332;29;20583;-72
2022/07/01 08:24:39;;;;;;;2.20;2.00;;;;;;;17.53;91.47;101518.47;4958191;28;20180;-72
2022/07/01 08:27:05;;;;;;;7.03;2.00;;;;;;;17.52;90.79;101516.75;4970419;28;20685;-72
2022/07/01 08:29:30;;;;;;;2.93;2.00;;;;;;;17.55;90.63;101522.81;4952972;28;20200;-72
2022/07/01 08:31:56;;;;;;;2.67;1.90;;;;;;;17.66;90.67;101517.66;4950207;28;20677;-72
2022/07/01 08:34:21;;;;;;;4.13;1.70;;;;;;;17.67;91.04;101519.38;4950974;29;20189;-72
2022/07/01 08:36:47;;;;;;;3.57;1.80;;;;;;;17.67;91.18;101516.78;4950079;28;20213;-72
2022/07/01 08:39:12;;;;;;;3.63;2.00;;;;;;;17.59;90.81;101516.78;4971849;28;20553;-71
2022/07/01 08:41:40;;;;;;;4.87;2.30;;;;;;;17.63;90.60;101528.00;4972752;28;20225;-72
2022/07/01 08:44:06;;;;;;;4.30;2.30;;;;;;;17.69;90.05;101530.63;4948883;28;20189;-72
2022/07/01 08:46:31;;;;;;;1.93;1.77;;;;;;;17.80;89.82;101532.38;4950642;28;20709;-71
2022/07/01 08:48:57;;;;;;;4.33;1.93;;;;;;;17.93;89.82;101535.81;4950177;29;20284;-71
2022/07/01 08:51:22;;;;;;;4.47;2.10;;;;;;;17.98;89.64;101539.28;4957957;28;20185;-72
2022/07/01 08:53:47;;;;;;;4.43;2.00;;;;;;;17.98;89.53;101544.47;4949355;28;20240;-73
2022/07/01 08:58:57;;;;;;;3.47;2.20;;;;;;;18.16;89.54;101541.88;4950265;29;20268;-71
2022/07/01 09:01:25;;;;;;;4.10;2.00;;;;;;;18.16;88.79;101552.25;4952282;28;20646;-72
2022/07/01 09:03:55;;;;;;;3.20;2.23;;;;;;;18.28;88.90;101553.09;4957078;28;20187;-71
2022/07/01 09:06:23;;;;;;;5.20;3.33;;;;;;;18.31;88.22;101550.50;4973342;28;20213;-71
2022/07/01 09:08:49;;;;;;;7.20;3.27;;;;;;;18.35;88.13;101554.00;4973689;28;20197;-72
2022/07/01 09:11:25;;;;;;;3.00;2.30;;;;;;;18.23;86.37;101557.44;4972781;28;20248;-72
2022/07/01 09:14:12;;;;;;;2.97;2.30;;;;;;;18.19;86.99;101553.09;4956409;28;20188;-72
2022/07/01 09:16:46;;;;;;;2.83;2.00;;;;;;;18.20;87.22;101556.56;4938738;28;20221;-73
2022/07/01 09:19:14;;;;;;;4.20;1.87;;;;;;;18.17;86.78;101565.22;4946555;29;20192;-72
2022/07/01 09:21:40;;;;;;;2.63;2.07;;;;;;;18.14;87.54;101575.56;4953625;28;20216;-73
2022/07/01 09:24:25;;;;;;;2.43;1.80;;;;;;;17.95;87.23;101586.78;4953394;28;20196;-71
2022/07/01 09:26:55;;;;;;;3.10;2.10;;;;;;;17.70;87.54;101598.00;4952225;29;20224;-71
2022/07/01 09:29:26;;;;;;;2.50;2.30;;;;;;;17.74;88.50;101593.66;4953118;28;20201;-71
2022/07/01 09:31:51;;;;;;;3.03;2.00;;;;;;;17.74;88.45;101597.09;4950832;29;20654;-71
2022/07/01 09:34:17;;;;;;;2.67;2.23;;;;;;;17.76;88.45;101592.81;4953188;29;20212;-72
2022/07/01 09:36:51;;;;;;;2.80;2.07;;;;;;;17.73;87.99;101592.78;4952328;29;20216;-71
2022/07/01 09:39:17;;;;;;;2.60;2.23;;;;;;;17.64;87.90;101592.75;4953352;28;20654;-71
2022/07/01 09:41:42;;;;;;;4.27;2.10;;;;;;;17.78;87.82;101595.41;4953236;29;20219;-72
2022/07/01 09:44:09;;;;;;;1.77;1.67;;;;;;;17.86;88.11;101589.38;4952220;29;20202;-71
2022/07/01 09:46:35;;;;;;;2.33;2.03;;;;;;;17.92;88.08;101588.53;4952781;29;20644;-71
2022/07/01 09:49:00;;;;;;;3.27;2.80;;;;;;;17.86;87.67;101589.38;4968163;28;20272;-71
2022/07/01 09:51:27;;;;;;;7.63;4.90;;;;;;;17.90;88.62;101604.06;4952805;29;20196;-72
2022/07/01 09:53:53;;;;;;;9.93;5.97;;;;;;;17.87;88.45;101600.63;4953262;28;20674;-71
2022/07/01 09:56:19;;;;;;;11.27;5.70;;;;;;;17.76;88.59;101604.88;4953683;29;20268;-73
2022/07/01 09:58:44;;;;;;;11.50;5.10;;;;;;;17.75;88.66;101608.34;4952316;28;20185;-72
2022/07/01 10:01:10;;;;;;;7.37;4.33;;;;;;;17.75;88.33;101611.81;4952491;29;20209;-72
2022/07/01 10:03:39;;;;;;;6.67;3.90;;;;;;;17.79;89.36;101612.69;4948441;28;20588;-72
2022/07/01 10:06:07;;;;;;;3.57;2.57;;;;;;;17.72;88.59;101619.56;4950971;29;20263;-72
2022/07/01 10:08:50;;;;;;;5.03;2.60;;;;;;;17.64;89.39;101617.84;4953019;29;20268;-72
2022/07/01 10:11:44;;;;;;;4.03;2.90;;;;;;;17.73;89.82;101621.28;4951407;29;20181;-71
2022/07/01 10:14:12;;;;;;;6.63;3.30;;;;;;;17.74;89.67;101623.00;4950868;28;20188;-72
2022/07/01 10:16:38;;;;;;;3.90;3.03;;;;;;;17.68;90.23;101628.19;4950176;29;20212;-72
2022/07/01 10:19:28;;;;;;;4.37;2.90;;;;;;;17.67;90.17;101620.41;4953676;28;20190;-72
2022/07/01 10:21:58;;;;;;;4.37;2.60;;;;;;;17.77;90.46;101630.81;4976009;28;20233;-72
2022/07/01 10:24:25;;;;;;;3.60;2.50;;;;;;;17.91;90.74;101636.06;4952374;29;20200;-73
2022/07/01 10:26:51;;;;;;;5.50;3.07;;;;;;;17.64;89.83;101641.16;4952648;28;20696;-72
2022/07/01 10:29:34;;;;;;;3.13;2.80;;;;;;;17.76;89.90;101646.34;4983453;28;20185;-74
2022/07/01 10:32:11;;;;;;;3.43;2.57;;;;;;;17.64;89.46;101654.94;4986690;28;20265;-74
2022/07/01 10:34:41;;;;;;;4.17;2.60;;;;;;;17.70;89.20;101655.00;4947710;29;20196;-71
2022/07/01 10:37:09;;;;;;;3.43;2.93;;;;;;;17.63;89.02;101654.94;4953171;29;20217;-73
2022/07/01 10:39:53;;;;;;;3.00;2.70;;;;;;;17.71;89.06;101654.13;4986418;28;20753;-75
2022/07/01 10:42:19;;;;;;;2.60;2.30;;;;;;;17.65;89.84;101659.28;4982953;28;20733;-73
2022/07/01 10:45:01;;;;;;;2.70;2.50;;;;;;;17.61;89.69;101672.22;4951474;28;20196;-71
2022/07/01 10:47:26;;;;;;;5.20;3.10;;;;;;;17.58;90.14;101673.06;4951777;28;20307;-71
2022/07/01 10:49:57;;;;;;;2.67;2.47;;;;;;;17.60;90.21;101678.25;4951406;28;20197;-71
2022/07/01 10:52:23;;;;;;;3.53;2.63;;;;;;;17.64;89.68;101692.97;4983130;28;20205;-71
2022/07/01 10:54:55;;;;;;;3.83;2.90;;;;;;;17.69;89.94;101689.50;4951736;28;20184;-70
2022/07/01 10:57:39;;;;;;;3.30;3.00;;;;;;;17.67;90.01;101701.59;4951638;28;20212;-73
2022/07/01 11:00:04;;;;;;;3.50;3.20;;;;;;;17.61;90.50;101709.34;4951920;28;20219;-73
2022/07/01 11:02:35;;;;;;;3.93;2.90;;;;;;;17.38;90.18;101713.50;4951472;29;20217;-73
2022/07/01 11:05:03;;;;;;;6.33;3.23;;;;;;;17.43;91.28;101711.84;4952274;29;20284;-73
2022/07/01 11:07:31;;;;;;;6.73;3.17;;;;;;;17.58;90.81;101719.69;4950398;29;20213;-75
2022/07/01 11:09:59;;;;;;;4.47;3.37;;;;;;;17.54;91.04;101727.44;4983050;28;20181;-73
2022/07/01 11:12:24;;;;;;;7.53;3.90;;;;;;;17.38;91.08;101725.59;4951556;28;20188;-75
2022/07/01 11:14:51;;;;;;;6.10;3.97;;;;;;;17.43;91.53;101732.56;4951598;28;20193;-74
2022/07/01 11:17:18;;;;;;;6.03;4.20;;;;;;;17.40;91.10;101729.94;4951709;28;20316;-75
2022/07/01 11:19:52;;;;;;;5.87;4.47;;;;;;;17.41;90.50;101731.66;4951525;28;20279;-74
2022/07/01 11:22:39;;;;;;;5.37;4.10;;;;;;;17.70;90.03;101731.84;4951930;28;20303;-75
2022/07/01 11:25:13;;;;;;;6.57;4.77;;;;;;;17.79;88.92;101729.28;4950194;28;20288;-75
2022/07/01 11:27:40;;;;;;;6.97;4.53;;;;;;;17.42;88.57;101735.16;4982587;28;20677;-74
2022/07/01 11:30:08;;;;;;;6.50;4.63;;;;;;;17.76;88.99;101730.16;4951090;28;20232;-74
2022/07/01 11:32:40;;;;;;;5.13;4.63;;;;;;;17.70;89.35;101722.34;4982182;28;20189;-74